sensor_id;sensor_type;location;lat;lon;timestamp;pressure;altitude;pressure_sealevel;temperature;humidity
70437;BME280;57877;39.750;-104.894;2023-04-24T00:01:23;83359.11;;;15.75;13.96
70437;BME280;57877;39.750;-104.894;2023-04-24T00:03:48;83358.79;;;15.11;14.47
70437;BME280;57877;39.750;-104.894;2023-04-24T00:06:13;83354.37;;;16.63;13.60
70437;BME280;57877;39.750;-104.894;2023-04-24T00:08:38;83360.94;;;16.35;13.70
70437;BME280;57877;39.750;-104.894;2023-04-24T00:11:03;83366.58;;;16.59;13.62
70437;BME280;57877;39.750;-104.894;2023-04-24T00:13:29;83362.62;;;16.29;14.02
70437;BME280;57877;39.750;-104.894;2023-04-24T00:15:54;83364.35;;;15.45;14.48
70437;BME280;57877;39.750;-104.894;2023-04-24T00:18:19;83365.81;;;15.69;14.54
70437;BME280;57877;39.750;-104.894;2023-04-24T00:20:45;83368.10;;;15.27;14.77
70437;BME280;57877;39.750;-104.894;2023-04-24T00:23:10;83364.83;;;14.55;15.17
70437;BME280;57877;39.750;-104.894;2023-04-24T00:25:35;83361.78;;;15.49;14.99
70437;BME280;57877;39.750;-104.894;2023-04-24T00:28:00;83365.52;;;15.08;15.07
70437;BME280;57877;39.750;-104.894;2023-04-24T00:30:25;83365.92;;;14.98;15.20
70437;BME280;57877;39.750;-104.894;2023-04-24T00:32:50;83366.88;;;15.54;15.30
70437;BME280;57877;39.750;-104.894;2023-04-24T00:35:16;83368.36;;;15.11;14.85
70437;BME280;57877;39.750;-104.894;2023-04-24T00:37:40;83364.24;;;15.81;14.62
70437;BME280;57877;39.750;-104.894;2023-04-24T00:40:07;83361.34;;;15.74;14.45
70437;BME280;57877;39.750;-104.894;2023-04-24T00:42:31;83357.60;;;16.14;14.30
70437;BME280;57877;39.750;-104.894;2023-04-24T00:44:56;83357.64;;;16.06;14.44
70437;BME280;57877;39.750;-104.894;2023-04-24T00:47:21;83358.41;;;15.57;14.86
70437;BME280;57877;39.750;-104.894;2023-04-24T00:49:46;83359.29;;;15.19;15.08
70437;BME280;57877;39.750;-104.894;2023-04-24T00:52:11;83358.47;;;14.07;15.70
70437;BME280;57877;39.750;-104.894;2023-04-24T00:54:36;83361.56;;;14.34;15.80
70437;BME280;57877;39.750;-104.894;2023-04-24T00:57:01;83360.19;;;14.55;15.48
70437;BME280;57877;39.750;-104.894;2023-04-24T00:59:26;83360.66;;;14.77;15.10
70437;BME280;57877;39.750;-104.894;2023-04-24T01:01:52;83362.46;;;14.99;15.13
70437;BME280;57877;39.750;-104.894;2023-04-24T01:04:17;83363.58;;;15.29;14.96
70437;BME280;57877;39.750;-104.894;2023-04-24T01:06:43;83364.90;;;14.85;15.35
70437;BME280;57877;39.750;-104.894;2023-04-24T01:09:06;83366.41;;;14.71;15.27
70437;BME280;57877;39.750;-104.894;2023-04-24T01:11:31;83363.93;;;14.70;15.04
70437;BME280;57877;39.750;-104.894;2023-04-24T01:13:57;83360.84;;;15.10;15.31
70437;BME280;57877;39.750;-104.894;2023-04-24T01:16:21;83359.66;;;14.55;15.35
70437;BME280;57877;39.750;-104.894;2023-04-24T01:18:46;83358.70;;;14.51;15.13
70437;BME280;57877;39.750;-104.894;2023-04-24T01:21:13;83355.37;;;14.11;15.74
70437;BME280;57877;39.750;-104.894;2023-04-24T01:23:37;83356.59;;;14.14;15.94
70437;BME280;57877;39.750;-104.894;2023-04-24T01:26:03;83355.86;;;14.39;15.61
70437;BME280;57877;39.750;-104.894;2023-04-24T01:28:28;83363.12;;;14.03;15.80
70437;BME280;57877;39.750;-104.894;2023-04-24T01:30:54;83363.92;;;14.08;15.56
70437;BME280;57877;39.750;-104.894;2023-04-24T01:33:21;83360.11;;;13.92;16.00
70437;BME280;57877;39.750;-104.894;2023-04-24T01:35:45;83358.14;;;13.57;16.02
70437;BME280;57877;39.750;-104.894;2023-04-24T01:38:10;83357.53;;;12.83;16.41
70437;BME280;57877;39.750;-104.894;2023-04-24T01:40:35;83362.30;;;13.11;16.34
70437;BME280;57877;39.750;-104.894;2023-04-24T01:43:01;83364.30;;;12.83;16.57
70437;BME280;57877;39.750;-104.894;2023-04-24T01:45:26;83363.48;;;12.24;17.03
70437;BME280;57877;39.750;-104.894;2023-04-24T01:47:52;83367.45;;;12.98;16.54
70437;BME280;57877;39.750;-104.894;2023-04-24T01:50:19;83365.52;;;12.81;16.62
70437;BME280;57877;39.750;-104.894;2023-04-24T01:52:44;83361.94;;;13.24;16.62
70437;BME280;57877;39.750;-104.894;2023-04-24T01:55:10;83367.25;;;13.33;16.39
70437;BME280;57877;39.750;-104.894;2023-04-24T01:57:36;83369.26;;;12.87;16.76
70437;BME280;57877;39.750;-104.894;2023-04-24T02:00:03;83371.36;;;13.45;16.54
70437;BME280;57877;39.750;-104.894;2023-04-24T02:02:29;83370.32;;;12.67;16.76
70437;BME280;57877;39.750;-104.894;2023-04-24T02:04:54;83376.49;;;13.64;16.41
70437;BME280;57877;39.750;-104.894;2023-04-24T02:07:20;83380.62;;;13.27;16.60
70437;BME280;57877;39.750;-104.894;2023-04-24T02:09:45;83383.28;;;13.03;16.93
70437;BME280;57877;39.750;-104.894;2023-04-24T02:12:10;83384.18;;;13.41;17.02
70437;BME280;57877;39.750;-104.894;2023-04-24T02:14:42;83386.28;;;13.57;16.53
70437;BME280;57877;39.750;-104.894;2023-04-24T02:17:00;83387.30;;;13.68;16.59
70437;BME280;57877;39.750;-104.894;2023-04-24T02:19:25;83388.63;;;13.41;16.99
70437;BME280;57877;39.750;-104.894;2023-04-24T02:21:50;83386.25;;;13.13;17.12
70437;BME280;57877;39.750;-104.894;2023-04-24T02:24:15;83392.73;;;13.03;17.50
70437;BME280;57877;39.750;-104.894;2023-04-24T02:26:41;83394.27;;;13.30;17.32
70437;BME280;57877;39.750;-104.894;2023-04-24T02:29:05;83396.99;;;13.25;17.52
70437;BME280;57877;39.750;-104.894;2023-04-24T02:31:31;83398.44;;;12.98;17.50
70437;BME280;57877;39.750;-104.894;2023-04-24T02:33:56;83400.78;;;13.38;17.39
70437;BME280;57877;39.750;-104.894;2023-04-24T02:36:21;83406.64;;;13.25;17.69
70437;BME280;57877;39.750;-104.894;2023-04-24T02:38:46;83405.43;;;12.83;17.83
70437;BME280;57877;39.750;-104.894;2023-04-24T02:41:11;83403.07;;;12.31;18.11
70437;BME280;57877;39.750;-104.894;2023-04-24T02:43:36;83401.25;;;12.19;18.21
70437;BME280;57877;39.750;-104.894;2023-04-24T02:46:02;83405.64;;;12.45;18.47
70437;BME280;57877;39.750;-104.894;2023-04-24T02:48:27;83404.25;;;12.30;18.70
70437;BME280;57877;39.750;-104.894;2023-04-24T02:50:52;83407.03;;;12.04;19.08
70437;BME280;57877;39.750;-104.894;2023-04-24T02:53:17;83404.16;;;11.78;19.41
70437;BME280;57877;39.750;-104.894;2023-04-24T02:55:42;83402.75;;;11.70;19.63
70437;BME280;57877;39.750;-104.894;2023-04-24T02:58:07;83400.22;;;11.19;20.14
70437;BME280;57877;39.750;-104.894;2023-04-24T03:00:32;83403.15;;;11.30;20.23
70437;BME280;57877;39.750;-104.894;2023-04-24T03:02:57;83399.98;;;11.46;20.59
70437;BME280;57877;39.750;-104.894;2023-04-24T03:05:22;83398.77;;;10.98;21.21
70437;BME280;57877;39.750;-104.894;2023-04-24T03:07:47;83401.12;;;11.54;21.24
70437;BME280;57877;39.750;-104.894;2023-04-24T03:10:12;83406.59;;;11.77;20.72
70437;BME280;57877;39.750;-104.894;2023-04-24T03:12:37;83409.36;;;11.06;21.85
70437;BME280;57877;39.750;-104.894;2023-04-24T03:15:02;83410.87;;;11.09;22.00
70437;BME280;57877;39.750;-104.894;2023-04-24T03:17:27;83411.61;;;10.75;22.48
70437;BME280;57877;39.750;-104.894;2023-04-24T03:19:52;83412.53;;;11.21;22.27
70437;BME280;57877;39.750;-104.894;2023-04-24T03:22:17;83416.88;;;10.71;22.79
70437;BME280;57877;39.750;-104.894;2023-04-24T03:24:42;83421.56;;;10.48;23.00
70437;BME280;57877;39.750;-104.894;2023-04-24T03:27:07;83420.73;;;11.27;22.45
70437;BME280;57877;39.750;-104.894;2023-04-24T03:29:32;83423.60;;;11.73;22.11
70437;BME280;57877;39.750;-104.894;2023-04-24T03:31:57;83426.72;;;11.66;22.03
70437;BME280;57877;39.750;-104.894;2023-04-24T03:34:22;83425.14;;;11.58;22.13
70437;BME280;57877;39.750;-104.894;2023-04-24T03:36:48;83420.79;;;11.70;22.35
70437;BME280;57877;39.750;-104.894;2023-04-24T03:39:13;83422.01;;;11.28;22.59
70437;BME280;57877;39.750;-104.894;2023-04-24T03:41:39;83422.63;;;11.87;22.33
70437;BME280;57877;39.750;-104.894;2023-04-24T03:44:04;83424.16;;;11.88;22.18
70437;BME280;57877;39.750;-104.894;2023-04-24T03:46:29;83424.19;;;11.67;22.19
70437;BME280;57877;39.750;-104.894;2023-04-24T03:48:54;83422.36;;;11.27;22.43
70437;BME280;57877;39.750;-104.894;2023-04-24T03:51:20;83421.99;;;11.81;22.26
70437;BME280;57877;39.750;-104.894;2023-04-24T03:53:45;83423.44;;;11.54;22.47
70437;BME280;57877;39.750;-104.894;2023-04-24T03:56:10;83424.57;;;11.62;22.58
70437;BME280;57877;39.750;-104.894;2023-04-24T03:58:35;83425.06;;;11.46;22.78
70437;BME280;57877;39.750;-104.894;2023-04-24T04:01:01;83424.09;;;11.63;22.61
70437;BME280;57877;39.750;-104.894;2023-04-24T04:03:26;83423.27;;;11.16;22.91
70437;BME280;57877;39.750;-104.894;2023-04-24T04:05:51;83419.34;;;11.61;22.79
70437;BME280;57877;39.750;-104.894;2023-04-24T04:08:16;83417.82;;;11.04;23.23
70437;BME280;57877;39.750;-104.894;2023-04-24T04:10:41;83417.18;;;11.12;23.12
70437;BME280;57877;39.750;-104.894;2023-04-24T04:13:06;83419.35;;;11.22;23.25
70437;BME280;57877;39.750;-104.894;2023-04-24T04:15:32;83418.27;;;11.68;22.99
70437;BME280;57877;39.750;-104.894;2023-04-24T04:17:57;83415.85;;;11.05;23.17
70437;BME280;57877;39.750;-104.894;2023-04-24T04:20:23;83414.02;;;11.61;23.12
70437;BME280;57877;39.750;-104.894;2023-04-24T04:22:49;83409.29;;;10.92;23.24
70437;BME280;57877;39.750;-104.894;2023-04-24T04:25:15;83408.98;;;11.27;23.26
70437;BME280;57877;39.750;-104.894;2023-04-24T04:27:40;83408.32;;;11.32;23.16
70437;BME280;57877;39.750;-104.894;2023-04-24T04:30:07;83410.32;;;11.01;23.18
70437;BME280;57877;39.750;-104.894;2023-04-24T04:32:31;83409.15;;;11.17;23.04
70437;BME280;57877;39.750;-104.894;2023-04-24T04:34:57;83405.16;;;11.46;23.30
70437;BME280;57877;39.750;-104.894;2023-04-24T04:37:22;83403.25;;;11.32;23.46
70437;BME280;57877;39.750;-104.894;2023-04-24T04:39:48;83404.76;;;11.11;23.44
70437;BME280;57877;39.750;-104.894;2023-04-24T04:42:14;83410.23;;;11.20;23.40
70437;BME280;57877;39.750;-104.894;2023-04-24T04:44:40;83410.75;;;11.41;23.44
70437;BME280;57877;39.750;-104.894;2023-04-24T04:47:05;83408.43;;;10.91;23.83
70437;BME280;57877;39.750;-104.894;2023-04-24T04:49:30;83403.94;;;11.12;23.91
70437;BME280;57877;39.750;-104.894;2023-04-24T04:51:55;83400.63;;;11.19;23.96
70437;BME280;57877;39.750;-104.894;2023-04-24T04:54:20;83399.32;;;10.63;24.59
70437;BME280;57877;39.750;-104.894;2023-04-24T04:56:45;83406.03;;;9.99;25.30
70437;BME280;57877;39.750;-104.894;2023-04-24T04:59:11;83405.03;;;10.64;24.72
70437;BME280;57877;39.750;-104.894;2023-04-24T05:01:36;83406.86;;;10.55;24.91
70437;BME280;57877;39.750;-104.894;2023-04-24T05:04:01;83399.90;;;10.70;24.75
70437;BME280;57877;39.750;-104.894;2023-04-24T05:06:26;83399.84;;;10.51;25.01
70437;BME280;57877;39.750;-104.894;2023-04-24T05:08:51;83399.12;;;10.47;25.13
70437;BME280;57877;39.750;-104.894;2023-04-24T05:11:16;83403.30;;;10.17;25.42
70437;BME280;57877;39.750;-104.894;2023-04-24T05:13:41;83402.45;;;9.87;25.80
70437;BME280;57877;39.750;-104.894;2023-04-24T05:16:06;83400.81;;;10.28;25.87
70437;BME280;57877;39.750;-104.894;2023-04-24T05:18:31;83398.34;;;10.23;25.51
70437;BME280;57877;39.750;-104.894;2023-04-24T05:20:56;83394.19;;;10.16;25.82
70437;BME280;57877;39.750;-104.894;2023-04-24T05:23:21;83391.81;;;9.37;26.38
70437;BME280;57877;39.750;-104.894;2023-04-24T05:25:46;83391.83;;;9.81;26.30
70437;BME280;57877;39.750;-104.894;2023-04-24T05:28:11;83391.25;;;9.61;26.59
70437;BME280;57877;39.750;-104.894;2023-04-24T05:30:37;83387.04;;;9.68;26.51
70437;BME280;57877;39.750;-104.894;2023-04-24T05:33:02;83390.57;;;9.35;26.84
70437;BME280;57877;39.750;-104.894;2023-04-24T05:35:27;83389.52;;;9.52;26.65
70437;BME280;57877;39.750;-104.894;2023-04-24T05:37:52;83392.07;;;9.85;26.29
70437;BME280;57877;39.750;-104.894;2023-04-24T05:40:18;83392.02;;;9.74;26.60
70437;BME280;57877;39.750;-104.894;2023-04-24T05:42:43;83391.23;;;9.29;27.21
70437;BME280;57877;39.750;-104.894;2023-04-24T05:45:08;83389.09;;;9.42;27.13
70437;BME280;57877;39.750;-104.894;2023-04-24T05:47:33;83387.84;;;9.59;27.02
70437;BME280;57877;39.750;-104.894;2023-04-24T05:49:58;83385.65;;;9.37;27.26
70437;BME280;57877;39.750;-104.894;2023-04-24T05:52:23;83383.25;;;9.64;26.98
70437;BME280;57877;39.750;-104.894;2023-04-24T05:54:48;83382.30;;;9.53;27.11
70437;BME280;57877;39.750;-104.894;2023-04-24T05:57:13;83381.83;;;9.68;27.01
70437;BME280;57877;39.750;-104.894;2023-04-24T05:59:38;83383.32;;;9.36;27.17
70437;BME280;57877;39.750;-104.894;2023-04-24T06:02:03;83385.49;;;9.40;27.11
70437;BME280;57877;39.750;-104.894;2023-04-24T06:04:28;83383.10;;;9.52;27.28
70437;BME280;57877;39.750;-104.894;2023-04-24T06:06:53;83379.33;;;9.51;27.29
70437;BME280;57877;39.750;-104.894;2023-04-24T06:09:18;83380.63;;;9.29;27.30
70437;BME280;57877;39.750;-104.894;2023-04-24T06:11:43;83379.47;;;9.36;27.57
70437;BME280;57877;39.750;-104.894;2023-04-24T06:14:09;83378.09;;;8.77;27.53
70437;BME280;57877;39.750;-104.894;2023-04-24T06:16:34;83375.94;;;9.15;27.55
70437;BME280;57877;39.750;-104.894;2023-04-24T06:18:59;83373.61;;;9.39;27.45
70437;BME280;57877;39.750;-104.894;2023-04-24T06:21:24;83372.33;;;9.27;27.67
70437;BME280;57877;39.750;-104.894;2023-04-24T06:23:49;83373.00;;;9.26;27.78
70437;BME280;57877;39.750;-104.894;2023-04-24T06:26:14;83369.21;;;9.69;27.54
70437;BME280;57877;39.750;-104.894;2023-04-24T06:28:39;83367.80;;;9.35;27.74
70437;BME280;57877;39.750;-104.894;2023-04-24T06:31:04;83364.30;;;9.57;27.43
70437;BME280;57877;39.750;-104.894;2023-04-24T06:33:29;83360.58;;;9.43;27.64
70437;BME280;57877;39.750;-104.894;2023-04-24T06:35:54;83361.43;;;9.30;27.59
70437;BME280;57877;39.750;-104.894;2023-04-24T06:38:19;83359.65;;;9.56;27.50
70437;BME280;57877;39.750;-104.894;2023-04-24T06:40:44;83358.61;;;9.48;27.62
70437;BME280;57877;39.750;-104.894;2023-04-24T06:43:09;83358.15;;;9.16;28.04
70437;BME280;57877;39.750;-104.894;2023-04-24T06:45:34;83356.11;;;9.11;28.18
70437;BME280;57877;39.750;-104.894;2023-04-24T06:47:59;83353.90;;;9.07;28.27
70437;BME280;57877;39.750;-104.894;2023-04-24T06:50:25;83353.68;;;8.89;28.45
70437;BME280;57877;39.750;-104.894;2023-04-24T06:52:50;83353.15;;;8.84;28.50
70437;BME280;57877;39.750;-104.894;2023-04-24T06:55:15;83355.14;;;8.82;28.47
70437;BME280;57877;39.750;-104.894;2023-04-24T06:57:40;83353.09;;;8.72;28.40
70437;BME280;57877;39.750;-104.894;2023-04-24T07:00:06;83349.27;;;8.85;28.17
70437;BME280;57877;39.750;-104.894;2023-04-24T07:02:30;83348.87;;;9.00;28.34
70437;BME280;57877;39.750;-104.894;2023-04-24T07:04:55;83344.38;;;9.16;28.49
70437;BME280;57877;39.750;-104.894;2023-04-24T07:07:20;83338.86;;;8.83;28.53
70437;BME280;57877;39.750;-104.894;2023-04-24T07:09:45;83333.52;;;8.81;28.48
70437;BME280;57877;39.750;-104.894;2023-04-24T07:12:10;83328.62;;;8.82;28.58
70437;BME280;57877;39.750;-104.894;2023-04-24T07:14:35;83329.43;;;8.51;28.86
70437;BME280;57877;39.750;-104.894;2023-04-24T07:17:00;83327.31;;;8.60;28.92
70437;BME280;57877;39.750;-104.894;2023-04-24T07:19:25;83318.64;;;8.12;29.13
70437;BME280;57877;39.750;-104.894;2023-04-24T07:21:50;83313.76;;;8.37;29.21
70437;BME280;57877;39.750;-104.894;2023-04-24T07:24:15;83309.06;;;8.01;29.41
70437;BME280;57877;39.750;-104.894;2023-04-24T07:26:41;83307.80;;;8.41;29.09
70437;BME280;57877;39.750;-104.894;2023-04-24T07:29:06;83302.51;;;8.39;29.04
70437;BME280;57877;39.750;-104.894;2023-04-24T07:31:32;83300.68;;;8.12;29.08
70437;BME280;57877;39.750;-104.894;2023-04-24T07:33:56;83298.64;;;8.39;29.02
70437;BME280;57877;39.750;-104.894;2023-04-24T07:36:21;83295.28;;;8.49;28.86
70437;BME280;57877;39.750;-104.894;2023-04-24T07:38:46;83292.84;;;8.74;28.88
70437;BME280;57877;39.750;-104.894;2023-04-24T07:41:12;83289.64;;;8.30;29.03
70437;BME280;57877;39.750;-104.894;2023-04-24T07:43:37;83288.30;;;7.92;29.14
70437;BME280;57877;39.750;-104.894;2023-04-24T07:46:02;83282.28;;;8.10;29.43
70437;BME280;57877;39.750;-104.894;2023-04-24T07:48:27;83280.70;;;7.99;29.35
70437;BME280;57877;39.750;-104.894;2023-04-24T07:50:52;83277.50;;;7.76;29.75
70437;BME280;57877;39.750;-104.894;2023-04-24T07:53:17;83275.02;;;7.74;29.71
70437;BME280;57877;39.750;-104.894;2023-04-24T07:55:43;83273.16;;;7.89;29.76
70437;BME280;57877;39.750;-104.894;2023-04-24T07:58:07;83274.80;;;7.76;29.64
70437;BME280;57877;39.750;-104.894;2023-04-24T08:00:33;83273.16;;;7.84;29.52
70437;BME280;57877;39.750;-104.894;2023-04-24T08:02:57;83271.19;;;7.65;29.51
70437;BME280;57877;39.750;-104.894;2023-04-24T08:05:23;83269.00;;;7.86;29.64
70437;BME280;57877;39.750;-104.894;2023-04-24T08:07:48;83269.41;;;8.01;29.50
70437;BME280;57877;39.750;-104.894;2023-04-24T08:10:13;83266.35;;;7.90;29.63
70437;BME280;57877;39.750;-104.894;2023-04-24T08:12:38;83264.46;;;7.74;29.42
70437;BME280;57877;39.750;-104.894;2023-04-24T08:15:03;83264.10;;;8.08;29.35
70437;BME280;57877;39.750;-104.894;2023-04-24T08:17:28;83261.82;;;7.85;29.73
70437;BME280;57877;39.750;-104.894;2023-04-24T08:19:53;83259.12;;;7.88;29.80
70437;BME280;57877;39.750;-104.894;2023-04-24T08:22:18;83258.20;;;7.75;30.03
70437;BME280;57877;39.750;-104.894;2023-04-24T08:24:43;83256.77;;;7.42;30.72
70437;BME280;57877;39.750;-104.894;2023-04-24T08:27:09;83256.55;;;7.54;30.57
70437;BME280;57877;39.750;-104.894;2023-04-24T08:29:33;83250.15;;;7.61;30.50
70437;BME280;57877;39.750;-104.894;2023-04-24T08:31:58;83252.64;;;7.71;30.53
70437;BME280;57877;39.750;-104.894;2023-04-24T08:34:23;83248.26;;;7.61;30.79
70437;BME280;57877;39.750;-104.894;2023-04-24T08:36:49;83248.97;;;7.76;30.62
70437;BME280;57877;39.750;-104.894;2023-04-24T08:39:14;83247.26;;;7.58;30.88
70437;BME280;57877;39.750;-104.894;2023-04-24T08:41:41;83246.22;;;7.66;30.76
70437;BME280;57877;39.750;-104.894;2023-04-24T08:44:04;83241.22;;;7.41;30.77
70437;BME280;57877;39.750;-104.894;2023-04-24T08:46:30;83242.92;;;7.57;30.86
70437;BME280;57877;39.750;-104.894;2023-04-24T08:48:54;83244.62;;;7.29;31.09
70437;BME280;57877;39.750;-104.894;2023-04-24T08:51:20;83243.86;;;7.45;31.19
70437;BME280;57877;39.750;-104.894;2023-04-24T08:53:44;83240.93;;;6.76;31.74
70437;BME280;57877;39.750;-104.894;2023-04-24T08:56:09;83237.55;;;6.60;32.13
70437;BME280;57877;39.750;-104.894;2023-04-24T08:58:36;83235.97;;;7.29;31.84
70437;BME280;57877;39.750;-104.894;2023-04-24T09:00:59;83234.17;;;7.06;32.30
70437;BME280;57877;39.750;-104.894;2023-04-24T09:03:24;83232.46;;;6.87;32.13
70437;BME280;57877;39.750;-104.894;2023-04-24T09:05:50;83229.09;;;7.07;32.13
70437;BME280;57877;39.750;-104.894;2023-04-24T09:08:15;83229.46;;;7.10;31.88
70437;BME280;57877;39.750;-104.894;2023-04-24T09:10:40;83230.53;;;6.65;32.33
70437;BME280;57877;39.750;-104.894;2023-04-24T09:13:05;83226.66;;;6.32;32.75
70437;BME280;57877;39.750;-104.894;2023-04-24T09:15:29;83229.21;;;6.63;32.73
70437;BME280;57877;39.750;-104.894;2023-04-24T09:17:55;83230.22;;;6.67;32.69
70437;BME280;57877;39.750;-104.894;2023-04-24T09:20:20;83228.35;;;6.76;32.59
70437;BME280;57877;39.750;-104.894;2023-04-24T09:22:45;83225.32;;;6.72;32.74
70437;BME280;57877;39.750;-104.894;2023-04-24T09:25:10;83227.39;;;6.53;32.63
70437;BME280;57877;39.750;-104.894;2023-04-24T09:27:35;83226.94;;;6.65;32.83
70437;BME280;57877;39.750;-104.894;2023-04-24T09:30:01;83225.07;;;6.77;33.08
70437;BME280;57877;39.750;-104.894;2023-04-24T09:32:25;83227.07;;;6.80;32.70
70437;BME280;57877;39.750;-104.894;2023-04-24T09:35:04;83221.76;;;6.53;32.99
70437;BME280;57877;39.750;-104.894;2023-04-24T09:39:40;83224.10;;;6.48;33.14
70437;BME280;57877;39.750;-104.894;2023-04-24T09:42:05;83218.09;;;6.77;33.09
70437;BME280;57877;39.750;-104.894;2023-04-24T09:44:30;83222.42;;;6.63;32.91
70437;BME280;57877;39.750;-104.894;2023-04-24T09:46:57;83226.72;;;6.63;32.93
70437;BME280;57877;39.750;-104.894;2023-04-24T09:49:23;83226.86;;;6.61;32.86
70437;BME280;57877;39.750;-104.894;2023-04-24T09:51:46;83229.50;;;6.69;32.83
70437;BME280;57877;39.750;-104.894;2023-04-24T09:54:15;83235.14;;;6.65;32.81
70437;BME280;57877;39.750;-104.894;2023-04-24T09:56:37;83236.45;;;6.58;32.92
70437;BME280;57877;39.750;-104.894;2023-04-24T09:59:06;83230.45;;;6.48;32.86
70437;BME280;57877;39.750;-104.894;2023-04-24T10:01:31;83230.17;;;6.40;33.05
70437;BME280;57877;39.750;-104.894;2023-04-24T10:03:52;83230.30;;;6.46;33.00
70437;BME280;57877;39.750;-104.894;2023-04-24T10:06:17;83229.86;;;6.75;32.65
70437;BME280;57877;39.750;-104.894;2023-04-24T10:08:42;83233.40;;;6.63;33.13
70437;BME280;57877;39.750;-104.894;2023-04-24T10:11:08;83237.24;;;6.79;32.78
70437;BME280;57877;39.750;-104.894;2023-04-24T10:13:33;83238.15;;;6.84;32.67
70437;BME280;57877;39.750;-104.894;2023-04-24T10:15:59;83245.38;;;6.42;32.96
70437;BME280;57877;39.750;-104.894;2023-04-24T10:18:23;83246.52;;;6.71;32.92
70437;BME280;57877;39.750;-104.894;2023-04-24T10:20:48;83245.58;;;6.58;32.75
70437;BME280;57877;39.750;-104.894;2023-04-24T10:23:13;83246.21;;;6.63;32.90
70437;BME280;57877;39.750;-104.894;2023-04-24T10:25:38;83240.67;;;6.36;33.34
70437;BME280;57877;39.750;-104.894;2023-04-24T10:28:04;83240.25;;;6.68;33.07
70437;BME280;57877;39.750;-104.894;2023-04-24T10:30:29;83240.40;;;6.36;33.15
70437;BME280;57877;39.750;-104.894;2023-04-24T10:32:53;83241.49;;;6.34;33.49
70437;BME280;57877;39.750;-104.894;2023-04-24T10:35:19;83242.72;;;6.64;33.24
70437;BME280;57877;39.750;-104.894;2023-04-24T10:37:46;83251.87;;;6.66;33.20
70437;BME280;57877;39.750;-104.894;2023-04-24T10:40:09;83253.21;;;6.70;33.56
70437;BME280;57877;39.750;-104.894;2023-04-24T10:42:34;83254.90;;;6.48;33.75
70437;BME280;57877;39.750;-104.894;2023-04-24T10:44:59;83252.49;;;6.44;33.57
70437;BME280;57877;39.750;-104.894;2023-04-24T10:47:24;83255.86;;;6.75;33.22
70437;BME280;57877;39.750;-104.894;2023-04-24T10:49:51;83255.93;;;6.71;33.20
70437;BME280;57877;39.750;-104.894;2023-04-24T10:52:14;83257.56;;;6.65;33.31
70437;BME280;57877;39.750;-104.894;2023-04-24T10:54:45;83256.82;;;6.58;33.25
70437;BME280;57877;39.750;-104.894;2023-04-24T10:59:34;83255.27;;;6.71;32.96
70437;BME280;57877;39.750;-104.894;2023-04-24T11:01:55;83255.42;;;6.58;33.14
70437;BME280;57877;39.750;-104.894;2023-04-24T11:04:29;83258.05;;;6.83;32.70
70437;BME280;57877;39.750;-104.894;2023-04-24T11:06:45;83257.50;;;6.75;32.66
70437;BME280;57877;39.750;-104.894;2023-04-24T11:09:10;83260.77;;;6.84;32.39
70437;BME280;57877;39.750;-104.894;2023-04-24T11:11:36;83258.13;;;6.56;32.37
70437;BME280;57877;39.750;-104.894;2023-04-24T11:14:05;83258.47;;;6.99;32.07
70437;BME280;57877;39.750;-104.894;2023-04-24T11:16:28;83263.09;;;6.81;32.05
70437;BME280;57877;39.750;-104.894;2023-04-24T11:18:52;83271.75;;;6.42;32.70
70437;BME280;57877;39.750;-104.894;2023-04-24T11:21:17;83274.07;;;6.85;32.71
70437;BME280;57877;39.750;-104.894;2023-04-24T11:23:40;83282.06;;;6.78;32.96
70437;BME280;57877;39.750;-104.894;2023-04-24T11:26:11;83287.91;;;6.59;32.63
70437;BME280;57877;39.750;-104.894;2023-04-24T11:28:30;83285.15;;;6.81;32.72
70437;BME280;57877;39.750;-104.894;2023-04-24T11:30:55;83284.40;;;6.81;32.39
70437;BME280;57877;39.750;-104.894;2023-04-24T11:33:21;83289.49;;;6.80;32.38
70437;BME280;57877;39.750;-104.894;2023-04-24T11:35:46;83287.90;;;7.11;32.29
70437;BME280;57877;39.750;-104.894;2023-04-24T11:38:11;83296.72;;;7.03;32.41
70437;BME280;57877;39.750;-104.894;2023-04-24T11:40:37;83300.46;;;6.78;32.80
70437;BME280;57877;39.750;-104.894;2023-04-24T11:43:01;83305.72;;;6.97;32.68
70437;BME280;57877;39.750;-104.894;2023-04-24T11:45:27;83308.06;;;6.80;32.66
70437;BME280;57877;39.750;-104.894;2023-04-24T11:47:51;83308.26;;;6.62;33.24
70437;BME280;57877;39.750;-104.894;2023-04-24T11:50:18;83306.31;;;6.83;33.04
70437;BME280;57877;39.750;-104.894;2023-04-24T11:52:42;83300.85;;;6.44;33.51
70437;BME280;57877;39.750;-104.894;2023-04-24T11:55:12;83307.08;;;6.44;33.90
70437;BME280;57877;39.750;-104.894;2023-04-24T11:57:31;83310.48;;;6.41;33.44
70437;BME280;57877;39.750;-104.894;2023-04-24T11:59:56;83314.75;;;6.75;33.48
70437;BME280;57877;39.750;-104.894;2023-04-24T12:02:23;83315.42;;;6.79;33.17
70437;BME280;57877;39.750;-104.894;2023-04-24T12:04:46;83315.90;;;6.49;33.19
70437;BME280;57877;39.750;-104.894;2023-04-24T12:07:12;83319.23;;;6.67;33.20
70437;BME280;57877;39.750;-104.894;2023-04-24T12:09:41;83323.96;;;6.67;33.23
70437;BME280;57877;39.750;-104.894;2023-04-24T12:12:02;83317.15;;;6.96;32.86
70437;BME280;57877;39.750;-104.894;2023-04-24T12:14:27;83321.94;;;6.48;33.10
70437;BME280;57877;39.750;-104.894;2023-04-24T12:16:52;83323.53;;;6.78;32.99
70437;BME280;57877;39.750;-104.894;2023-04-24T12:19:20;83324.72;;;6.97;32.79
70437;BME280;57877;39.750;-104.894;2023-04-24T12:21:42;83326.46;;;6.82;33.06
70437;BME280;57877;39.750;-104.894;2023-04-24T12:24:07;83327.62;;;6.84;33.09
70437;BME280;57877;39.750;-104.894;2023-04-24T12:26:32;83327.12;;;6.93;32.94
70437;BME280;57877;39.750;-104.894;2023-04-24T12:29:02;83329.29;;;6.47;32.91